sensor_id;sensor_type;location;lat;lon;timestamp;P1;durP1;ratioP1;P2;durP2;ratioP2
54125;SDS011;40360;52.992;6.796;2024-03-29T00:02:01;4.15;;;1.10;;
54125;SDS011;40360;52.992;6.796;2024-03-29T00:04:26;6.80;;;1.70;;
54125;SDS011;40360;52.992;6.796;2024-03-29T00:06:52;7.10;;;2.08;;
54125;SDS011;40360;52.992;6.796;2024-03-29T00:09:18;4.20;;;0.90;;
54125;SDS011;40360;52.992;6.796;2024-03-29T00:11:44;6.43;;;1.77;;
54125;SDS011;40360;52.992;6.796;2024-03-29T00:14:10;3.17;;;1.20;;
54125;SDS011;40360;52.992;6.796;2024-03-29T00:16:36;1.95;;;1.08;;
54125;SDS011;40360;52.992;6.796;2024-03-29T00:19:01;3.15;;;1.20;;
54125;SDS011;40360;52.992;6.796;2024-03-29T00:21:27;4.60;;;1.35;;
54125;SDS011;40360;52.992;6.796;2024-03-29T00:23:53;5.15;;;1.08;;
54125;SDS011;40360;52.992;6.796;2024-03-29T00:26:18;5.38;;;1.33;;
54125;SDS011;40360;52.992;6.796;2024-03-29T00:28:44;4.63;;;1.90;;
54125;SDS011;40360;52.992;6.796;2024-03-29T00:31:10;3.33;;;1.02;;
54125;SDS011;40360;52.992;6.796;2024-03-29T00:33:35;3.05;;;0.80;;
54125;SDS011;40360;52.992;6.796;2024-03-29T00:36:01;5.68;;;1.40;;
54125;SDS011;40360;52.992;6.796;2024-03-29T00:38:27;4.47;;;1.55;;
54125;SDS011;40360;52.992;6.796;2024-03-29T00:40:53;4.90;;;1.20;;
54125;SDS011;40360;52.992;6.796;2024-03-29T00:43:18;5.65;;;1.17;;
54125;SDS011;40360;52.992;6.796;2024-03-29T00:45:44;6.05;;;1.30;;
54125;SDS011;40360;52.992;6.796;2024-03-29T00:48:10;4.25;;;1.50;;
54125;SDS011;40360;52.992;6.796;2024-03-29T00:50:35;5.43;;;1.20;;
54125;SDS011;40360;52.992;6.796;2024-03-29T00:53:03;3.97;;;0.85;;
54125;SDS011;40360;52.992;6.796;2024-03-29T00:55:29;4.00;;;1.60;;
54125;SDS011;40360;52.992;6.796;2024-03-29T00:57:55;5.82;;;1.50;;
54125;SDS011;40360;52.992;6.796;2024-03-29T01:00:21;4.97;;;1.40;;
54125;SDS011;40360;52.992;6.796;2024-03-29T01:02:47;5.43;;;1.40;;
54125;SDS011;40360;52.992;6.796;2024-03-29T01:05:13;4.72;;;1.15;;
54125;SDS011;40360;52.992;6.796;2024-03-29T01:07:41;3.72;;;1.38;;
54125;SDS011;40360;52.992;6.796;2024-03-29T01:10:07;4.10;;;1.70;;
54125;SDS011;40360;52.992;6.796;2024-03-29T01:12:34;3.85;;;0.90;;
54125;SDS011;40360;52.992;6.796;2024-03-29T01:15:01;4.43;;;1.38;;
54125;SDS011;40360;52.992;6.796;2024-03-29T01:17:28;3.35;;;0.95;;
54125;SDS011;40360;52.992;6.796;2024-03-29T01:19:54;4.47;;;1.20;;
54125;SDS011;40360;52.992;6.796;2024-03-29T01:22:20;2.40;;;1.02;;
54125;SDS011;40360;52.992;6.796;2024-03-29T01:24:45;5.53;;;1.27;;
54125;SDS011;40360;52.992;6.796;2024-03-29T01:27:11;4.40;;;1.23;;
54125;SDS011;40360;52.992;6.796;2024-03-29T01:29:37;3.28;;;1.42;;
54125;SDS011;40360;52.992;6.796;2024-03-29T01:32:03;5.78;;;1.42;;
54125;SDS011;40360;52.992;6.796;2024-03-29T01:34:29;3.75;;;1.10;;
54125;SDS011;40360;52.992;6.796;2024-03-29T01:36:55;4.05;;;1.38;;
54125;SDS011;40360;52.992;6.796;2024-03-29T01:39:21;5.72;;;1.50;;
54125;SDS011;40360;52.992;6.796;2024-03-29T01:41:51;5.00;;;1.23;;
54125;SDS011;40360;52.992;6.796;2024-03-29T01:44:17;5.75;;;1.50;;
54125;SDS011;40360;52.992;6.796;2024-03-29T01:46:43;3.97;;;1.10;;
54125;SDS011;40360;52.992;6.796;2024-03-29T01:49:11;2.95;;;0.93;;
54125;SDS011;40360;52.992;6.796;2024-03-29T01:51:37;3.70;;;1.27;;
54125;SDS011;40360;52.992;6.796;2024-03-29T01:54:08;3.17;;;1.27;;
54125;SDS011;40360;52.992;6.796;2024-03-29T01:56:35;10.38;;;2.53;;
54125;SDS011;40360;52.992;6.796;2024-03-29T01:59:03;4.40;;;1.40;;
54125;SDS011;40360;52.992;6.796;2024-03-29T02:01:30;4.70;;;1.23;;
54125;SDS011;40360;52.992;6.796;2024-03-29T02:03:56;6.63;;;1.25;;
54125;SDS011;40360;52.992;6.796;2024-03-29T02:06:22;4.25;;;1.05;;
54125;SDS011;40360;52.992;6.796;2024-03-29T02:08:51;3.20;;;1.33;;
54125;SDS011;40360;52.992;6.796;2024-03-29T02:11:18;4.88;;;1.38;;
54125;SDS011;40360;52.992;6.796;2024-03-29T02:13:45;3.42;;;1.38;;
54125;SDS011;40360;52.992;6.796;2024-03-29T02:16:12;5.70;;;1.52;;
54125;SDS011;40360;52.992;6.796;2024-03-29T02:18:37;7.22;;;1.55;;
54125;SDS011;40360;52.992;6.796;2024-03-29T02:21:03;5.28;;;1.40;;
54125;SDS011;40360;52.992;6.796;2024-03-29T02:23:29;4.28;;;1.38;;
54125;SDS011;40360;52.992;6.796;2024-03-29T02:25:57;3.55;;;1.23;;
54125;SDS011;40360;52.992;6.796;2024-03-29T02:28:23;5.53;;;1.02;;
54125;SDS011;40360;52.992;6.796;2024-03-29T02:30:50;2.38;;;1.13;;
54125;SDS011;40360;52.992;6.796;2024-03-29T02:33:16;4.15;;;1.10;;
54125;SDS011;40360;52.992;6.796;2024-03-29T02:35:42;2.92;;;0.90;;
54125;SDS011;40360;52.992;6.796;2024-03-29T02:38:07;6.15;;;1.52;;
54125;SDS011;40360;52.992;6.796;2024-03-29T02:40:33;5.25;;;1.33;;
54125;SDS011;40360;52.992;6.796;2024-03-29T02:42:59;5.43;;;1.13;;
54125;SDS011;40360;52.992;6.796;2024-03-29T02:45:24;7.05;;;1.30;;
54125;SDS011;40360;52.992;6.796;2024-03-29T02:47:50;6.28;;;1.95;;
54125;SDS011;40360;52.992;6.796;2024-03-29T02:50:16;2.78;;;0.90;;
54125;SDS011;40360;52.992;6.796;2024-03-29T02:52:41;3.28;;;1.15;;
54125;SDS011;40360;52.992;6.796;2024-03-29T02:55:07;5.60;;;1.52;;
54125;SDS011;40360;52.992;6.796;2024-03-29T02:57:35;3.13;;;1.15;;
54125;SDS011;40360;52.992;6.796;2024-03-29T03:00:04;4.50;;;1.48;;
54125;SDS011;40360;52.992;6.796;2024-03-29T03:02:31;3.72;;;1.13;;
54125;SDS011;40360;52.992;6.796;2024-03-29T03:04:57;2.70;;;1.00;;
54125;SDS011;40360;52.992;6.796;2024-03-29T03:07:24;4.70;;;1.40;;
54125;SDS011;40360;52.992;6.796;2024-03-29T03:10:09;6.13;;;1.10;;
54125;SDS011;40360;52.992;6.796;2024-03-29T03:12:53;2.30;;;0.70;;
54125;SDS011;40360;52.992;6.796;2024-03-29T03:15:18;3.88;;;1.00;;
54125;SDS011;40360;52.992;6.796;2024-03-29T03:17:44;4.38;;;1.15;;
54125;SDS011;40360;52.992;6.796;2024-03-29T03:20:10;6.00;;;1.30;;
54125;SDS011;40360;52.992;6.796;2024-03-29T03:22:38;7.43;;;1.85;;
54125;SDS011;40360;52.992;6.796;2024-03-29T03:25:04;3.50;;;0.85;;
54125;SDS011;40360;52.992;6.796;2024-03-29T03:27:30;5.13;;;1.20;;
54125;SDS011;40360;52.992;6.796;2024-03-29T03:29:59;2.75;;;1.48;;
54125;SDS011;40360;52.992;6.796;2024-03-29T03:32:24;5.68;;;1.08;;
54125;SDS011;40360;52.992;6.796;2024-03-29T03:34:50;5.35;;;0.82;;
54125;SDS011;40360;52.992;6.796;2024-03-29T03:37:16;4.60;;;1.13;;
54125;SDS011;40360;52.992;6.796;2024-03-29T03:39:41;4.43;;;0.80;;
54125;SDS011;40360;52.992;6.796;2024-03-29T03:42:07;7.30;;;1.75;;
54125;SDS011;40360;52.992;6.796;2024-03-29T03:44:32;3.80;;;0.90;;
54125;SDS011;40360;52.992;6.796;2024-03-29T03:46:58;8.50;;;2.28;;
54125;SDS011;40360;52.992;6.796;2024-03-29T03:49:24;5.03;;;1.60;;
54125;SDS011;40360;52.992;6.796;2024-03-29T03:51:49;2.55;;;1.08;;
54125;SDS011;40360;52.992;6.796;2024-03-29T03:54:15;2.92;;;0.80;;
54125;SDS011;40360;52.992;6.796;2024-03-29T03:56:41;3.92;;;1.27;;
54125;SDS011;40360;52.992;6.796;2024-03-29T03:59:06;3.58;;;1.58;;
54125;SDS011;40360;52.992;6.796;2024-03-29T04:01:32;4.00;;;1.00;;
54125;SDS011;40360;52.992;6.796;2024-03-29T04:03:59;5.50;;;1.35;;
54125;SDS011;40360;52.992;6.796;2024-03-29T04:06:25;5.18;;;1.30;;
54125;SDS011;40360;52.992;6.796;2024-03-29T04:08:50;3.28;;;1.52;;
54125;SDS011;40360;52.992;6.796;2024-03-29T04:11:16;3.10;;;0.73;;
54125;SDS011;40360;52.992;6.796;2024-03-29T04:13:42;3.38;;;0.98;;
54125;SDS011;40360;52.992;6.796;2024-03-29T04:16:10;3.05;;;1.27;;
54125;SDS011;40360;52.992;6.796;2024-03-29T04:18:35;7.68;;;1.38;;
54125;SDS011;40360;52.992;6.796;2024-03-29T04:21:01;7.35;;;1.50;;
54125;SDS011;40360;52.992;6.796;2024-03-29T04:23:28;3.17;;;1.20;;
54125;SDS011;40360;52.992;6.796;2024-03-29T04:25:55;4.38;;;1.13;;
54125;SDS011;40360;52.992;6.796;2024-03-29T04:28:21;3.58;;;0.90;;
54125;SDS011;40360;52.992;6.796;2024-03-29T04:30:51;3.50;;;1.15;;
54125;SDS011;40360;52.992;6.796;2024-03-29T04:33:16;7.28;;;1.13;;
54125;SDS011;40360;52.992;6.796;2024-03-29T04:35:51;4.45;;;1.35;;
54125;SDS011;40360;52.992;6.796;2024-03-29T04:38:18;4.28;;;1.67;;
54125;SDS011;40360;52.992;6.796;2024-03-29T04:40:44;5.32;;;1.98;;
54125;SDS011;40360;52.992;6.796;2024-03-29T04:43:10;5.53;;;1.27;;
54125;SDS011;40360;52.992;6.796;2024-03-29T04:45:35;4.93;;;1.00;;
54125;SDS011;40360;52.992;6.796;2024-03-29T04:48:01;5.90;;;1.70;;
54125;SDS011;40360;52.992;6.796;2024-03-29T04:50:26;5.68;;;1.45;;
54125;SDS011;40360;52.992;6.796;2024-03-29T04:52:52;2.60;;;1.20;;
54125;SDS011;40360;52.992;6.796;2024-03-29T04:55:18;2.38;;;0.90;;
54125;SDS011;40360;52.992;6.796;2024-03-29T04:57:44;4.78;;;0.90;;
54125;SDS011;40360;52.992;6.796;2024-03-29T05:00:09;3.38;;;1.60;;
54125;SDS011;40360;52.992;6.796;2024-03-29T05:02:35;1.67;;;0.88;;
54125;SDS011;40360;52.992;6.796;2024-03-29T05:05:03;3.13;;;1.33;;
54125;SDS011;40360;52.992;6.796;2024-03-29T05:07:28;4.03;;;1.40;;
54125;SDS011;40360;52.992;6.796;2024-03-29T05:09:54;4.93;;;1.20;;
54125;SDS011;40360;52.992;6.796;2024-03-29T05:12:20;2.13;;;0.85;;
54125;SDS011;40360;52.992;6.796;2024-03-29T05:14:46;4.78;;;1.30;;
54125;SDS011;40360;52.992;6.796;2024-03-29T05:17:14;3.13;;;1.10;;
54125;SDS011;40360;52.992;6.796;2024-03-29T05:19:40;2.85;;;1.00;;
54125;SDS011;40360;52.992;6.796;2024-03-29T05:22:06;6.50;;;1.25;;
54125;SDS011;40360;52.992;6.796;2024-03-29T05:24:31;4.07;;;1.40;;
54125;SDS011;40360;52.992;6.796;2024-03-29T05:26:57;3.67;;;0.98;;
54125;SDS011;40360;52.992;6.796;2024-03-29T05:29:23;4.80;;;1.98;;
54125;SDS011;40360;52.992;6.796;2024-03-29T05:31:48;9.38;;;2.03;;
54125;SDS011;40360;52.992;6.796;2024-03-29T05:34:14;5.15;;;1.50;;
54125;SDS011;40360;52.992;6.796;2024-03-29T05:36:40;4.70;;;1.38;;
54125;SDS011;40360;52.992;6.796;2024-03-29T05:39:06;4.38;;;1.30;;
54125;SDS011;40360;52.992;6.796;2024-03-29T05:41:31;3.63;;;1.00;;
54125;SDS011;40360;52.992;6.796;2024-03-29T05:43:57;4.13;;;1.45;;
54125;SDS011;40360;52.992;6.796;2024-03-29T05:46:23;3.72;;;1.30;;
54125;SDS011;40360;52.992;6.796;2024-03-29T05:48:49;7.38;;;1.35;;
54125;SDS011;40360;52.992;6.796;2024-03-29T05:51:14;3.85;;;1.25;;
54125;SDS011;40360;52.992;6.796;2024-03-29T05:53:40;4.95;;;1.52;;
54125;SDS011;40360;52.992;6.796;2024-03-29T05:56:06;5.53;;;1.25;;
54125;SDS011;40360;52.992;6.796;2024-03-29T05:58:35;4.60;;;1.02;;
54125;SDS011;40360;52.992;6.796;2024-03-29T06:01:01;6.43;;;2.40;;
54125;SDS011;40360;52.992;6.796;2024-03-29T06:03:27;5.85;;;1.55;;
54125;SDS011;40360;52.992;6.796;2024-03-29T06:05:53;2.08;;;1.10;;
54125;SDS011;40360;52.992;6.796;2024-03-29T06:08:19;7.78;;;1.73;;
54125;SDS011;40360;52.992;6.796;2024-03-29T06:10:46;3.35;;;1.05;;
54125;SDS011;40360;52.992;6.796;2024-03-29T06:13:11;3.90;;;1.42;;
54125;SDS011;40360;52.992;6.796;2024-03-29T06:15:54;3.22;;;1.08;;
54125;SDS011;40360;52.992;6.796;2024-03-29T06:18:39;3.25;;;1.00;;
54125;SDS011;40360;52.992;6.796;2024-03-29T06:21:04;2.40;;;0.98;;
54125;SDS011;40360;52.992;6.796;2024-03-29T06:23:30;3.22;;;0.90;;
54125;SDS011;40360;52.992;6.796;2024-03-29T06:25:56;2.00;;;0.93;;
54125;SDS011;40360;52.992;6.796;2024-03-29T06:28:21;2.67;;;0.88;;
54125;SDS011;40360;52.992;6.796;2024-03-29T06:30:47;5.28;;;0.93;;
54125;SDS011;40360;52.992;6.796;2024-03-29T06:33:13;6.93;;;1.13;;
54125;SDS011;40360;52.992;6.796;2024-03-29T06:35:39;1.67;;;0.70;;
54125;SDS011;40360;52.992;6.796;2024-03-29T06:38:04;1.80;;;0.70;;
54125;SDS011;40360;52.992;6.796;2024-03-29T06:40:30;5.22;;;1.17;;
54125;SDS011;40360;52.992;6.796;2024-03-29T06:42:56;3.08;;;1.20;;
54125;SDS011;40360;52.992;6.796;2024-03-29T06:45:23;1.70;;;0.70;;
54125;SDS011;40360;52.992;6.796;2024-03-29T06:47:48;2.58;;;0.70;;
54125;SDS011;40360;52.992;6.796;2024-03-29T06:50:14;2.35;;;1.13;;
54125;SDS011;40360;52.992;6.796;2024-03-29T06:52:40;2.38;;;0.80;;
54125;SDS011;40360;52.992;6.796;2024-03-29T06:55:06;4.25;;;1.08;;
54125;SDS011;40360;52.992;6.796;2024-03-29T06:57:31;1.92;;;0.82;;
54125;SDS011;40360;52.992;6.796;2024-03-29T06:59:58;3.83;;;1.10;;
54125;SDS011;40360;52.992;6.796;2024-03-29T07:02:23;5.25;;;1.65;;
54125;SDS011;40360;52.992;6.796;2024-03-29T07:04:49;1.73;;;0.82;;
54125;SDS011;40360;52.992;6.796;2024-03-29T07:07:15;2.83;;;0.93;;
54125;SDS011;40360;52.992;6.796;2024-03-29T07:09:41;1.30;;;0.88;;
54125;SDS011;40360;52.992;6.796;2024-03-29T07:12:06;3.88;;;1.15;;
54125;SDS011;40360;52.992;6.796;2024-03-29T07:14:32;1.75;;;0.93;;
54125;SDS011;40360;52.992;6.796;2024-03-29T07:16:58;3.10;;;0.77;;
54125;SDS011;40360;52.992;6.796;2024-03-29T07:19:24;2.65;;;0.82;;
54125;SDS011;40360;52.992;6.796;2024-03-29T07:21:50;1.10;;;0.88;;
54125;SDS011;40360;52.992;6.796;2024-03-29T07:24:18;2.22;;;0.93;;
54125;SDS011;40360;52.992;6.796;2024-03-29T07:26:45;2.70;;;0.93;;
54125;SDS011;40360;52.992;6.796;2024-03-29T07:29:11;3.05;;;1.15;;
54125;SDS011;40360;52.992;6.796;2024-03-29T07:31:37;1.35;;;0.73;;
54125;SDS011;40360;52.992;6.796;2024-03-29T07:34:03;2.03;;;0.70;;
54125;SDS011;40360;52.992;6.796;2024-03-29T07:36:30;4.68;;;0.70;;
54125;SDS011;40360;52.992;6.796;2024-03-29T07:39:01;1.33;;;0.50;;
54125;SDS011;40360;52.992;6.796;2024-03-29T07:41:30;3.03;;;0.50;;
54125;SDS011;40360;52.992;6.796;2024-03-29T07:43:57;2.15;;;0.73;;
54125;SDS011;40360;52.992;6.796;2024-03-29T07:46:33;2.15;;;0.80;;
54125;SDS011;40360;52.992;6.796;2024-03-29T07:49:06;2.03;;;0.85;;
54125;SDS011;40360;52.992;6.796;2024-03-29T07:51:33;2.47;;;0.80;;
54125;SDS011;40360;52.992;6.796;2024-03-29T07:54:03;2.35;;;0.88;;
54125;SDS011;40360;52.992;6.796;2024-03-29T07:56:30;2.70;;;0.98;;
54125;SDS011;40360;52.992;6.796;2024-03-29T07:58:57;3.50;;;0.98;;
54125;SDS011;40360;52.992;6.796;2024-03-29T08:01:24;3.10;;;0.80;;
54125;SDS011;40360;52.992;6.796;2024-03-29T08:03:52;3.30;;;0.98;;
54125;SDS011;40360;52.992;6.796;2024-03-29T08:06:21;3.78;;;0.90;;
54125;SDS011;40360;52.992;6.796;2024-03-29T08:08:49;2.78;;;1.10;;
54125;SDS011;40360;52.992;6.796;2024-03-29T08:11:16;5.03;;;1.63;;
54125;SDS011;40360;52.992;6.796;2024-03-29T08:13:44;2.85;;;0.93;;
54125;SDS011;40360;52.992;6.796;2024-03-29T08:16:10;4.05;;;1.40;;
54125;SDS011;40360;52.992;6.796;2024-03-29T08:18:37;3.13;;;0.98;;
54125;SDS011;40360;52.992;6.796;2024-03-29T08:21:04;5.57;;;1.23;;
54125;SDS011;40360;52.992;6.796;2024-03-29T08:23:37;2.95;;;1.42;;
54125;SDS011;40360;52.992;6.796;2024-03-29T08:26:10;2.05;;;1.08;;
54125;SDS011;40360;52.992;6.796;2024-03-29T08:28:37;1.65;;;0.80;;
54125;SDS011;40360;52.992;6.796;2024-03-29T08:31:05;2.42;;;0.65;;
54125;SDS011;40360;52.992;6.796;2024-03-29T08:33:36;3.80;;;1.25;;
54125;SDS011;40360;52.992;6.796;2024-03-29T08:36:07;1.10;;;0.80;;
54125;SDS011;40360;52.992;6.796;2024-03-29T08:38:34;1.77;;;0.80;;
54125;SDS011;40360;52.992;6.796;2024-03-29T08:41:01;2.72;;;0.80;;
54125;SDS011;40360;52.992;6.796;2024-03-29T08:43:29;4.65;;;1.20;;
54125;SDS011;40360;52.992;6.796;2024-03-29T09:02:42;3.97;;;1.30;;
54125;SDS011;40360;52.992;6.796;2024-03-29T09:05:08;1.58;;;1.00;;
54125;SDS011;40360;52.992;6.796;2024-03-29T09:07:37;2.83;;;1.10;;
54125;SDS011;40360;52.992;6.796;2024-03-29T09:10:07;2.80;;;1.35;;
54125;SDS011;40360;52.992;6.796;2024-03-29T09:12:33;2.67;;;1.15;;
54125;SDS011;40360;52.992;6.796;2024-03-29T09:15:00;1.83;;;0.98;;
54125;SDS011;40360;52.992;6.796;2024-03-29T09:17:27;2.78;;;1.20;;
54125;SDS011;40360;52.992;6.796;2024-03-29T09:19:54;2.55;;;1.17;;
54125;SDS011;40360;52.992;6.796;2024-03-29T09:22:22;1.67;;;1.13;;
54125;SDS011;40360;52.992;6.796;2024-03-29T09:24:51;2.47;;;1.08;;
54125;SDS011;40360;52.992;6.796;2024-03-29T09:27:20;1.40;;;0.88;;
54125;SDS011;40360;52.992;6.796;2024-03-29T09:29:47;1.25;;;0.80;;
54125;SDS011;40360;52.992;6.796;2024-03-29T09:32:15;1.58;;;1.15;;
54125;SDS011;40360;52.992;6.796;2024-03-29T09:34:45;2.13;;;0.80;;
54125;SDS011;40360;52.992;6.796;2024-03-29T09:37:12;1.42;;;1.10;;
54125;SDS011;40360;52.992;6.796;2024-03-29T09:39:38;1.88;;;1.00;;
54125;SDS011;40360;52.992;6.796;2024-03-29T09:42:06;2.85;;;0.93;;
54125;SDS011;40360;52.992;6.796;2024-03-29T09:44:36;3.00;;;1.40;;
54125;SDS011;40360;52.992;6.796;2024-03-29T09:47:05;2.20;;;1.20;;
54125;SDS011;40360;52.992;6.796;2024-03-29T09:49:33;2.33;;;1.40;;
54125;SDS011;40360;52.992;6.796;2024-03-29T09:52:01;2.13;;;1.45;;
54125;SDS011;40360;52.992;6.796;2024-03-29T09:54:28;1.75;;;1.05;;
54125;SDS011;40360;52.992;6.796;2024-03-29T09:56:57;2.97;;;0.95;;
54125;SDS011;40360;52.992;6.796;2024-03-29T09:59:24;1.08;;;0.80;;
54125;SDS011;40360;52.992;6.796;2024-03-29T10:01:56;3.38;;;1.25;;
54125;SDS011;40360;52.992;6.796;2024-03-29T10:04:26;2.92;;;1.20;;
54125;SDS011;40360;52.992;6.796;2024-03-29T10:06:54;2.70;;;1.15;;
54125;SDS011;40360;52.992;6.796;2024-03-29T10:09:22;0.90;;;0.70;;
54125;SDS011;40360;52.992;6.796;2024-03-29T10:11:48;2.35;;;1.20;;
54125;SDS011;40360;52.992;6.796;2024-03-29T10:14:14;2.42;;;1.02;;
54125;SDS011;40360;52.992;6.796;2024-03-29T10:16:44;3.05;;;1.20;;
54125;SDS011;40360;52.992;6.796;2024-03-29T10:19:11;0.88;;;0.65;;
54125;SDS011;40360;52.992;6.796;2024-03-29T10:21:38;5.60;;;1.45;;
54125;SDS011;40360;52.992;6.796;2024-03-29T10:24:15;3.83;;;1.08;;
54125;SDS011;40360;52.992;6.796;2024-03-29T10:26:43;3.78;;;1.65;;
54125;SDS011;40360;52.992;6.796;2024-03-29T10:29:10;1.88;;;0.90;;
54125;SDS011;40360;52.992;6.796;2024-03-29T10:31:37;1.13;;;0.70;;
54125;SDS011;40360;52.992;6.796;2024-03-29T10:34:04;1.52;;;1.10;;
54125;SDS011;40360;52.992;6.796;2024-03-29T10:36:32;2.72;;;1.00;;
54125;SDS011;40360;52.992;6.796;2024-03-29T10:39:02;3.88;;;0.90;;
54125;SDS011;40360;52.992;6.796;2024-03-29T10:41:39;1.35;;;0.80;;
54125;SDS011;40360;52.992;6.796;2024-03-29T10:44:14;4.40;;;1.60;;
54125;SDS011;40360;52.992;6.796;2024-03-29T10:46:41;2.78;;;1.15;;
54125;SDS011;40360;52.992;6.796;2024-03-29T10:49:09;4.53;;;1.20;;
54125;SDS011;40360;52.992;6.796;2024-03-29T10:51:40;2.75;;;0.98;;
54125;SDS011;40360;52.992;6.796;2024-03-29T10:54:10;2.35;;;1.10;;
54125;SDS011;40360;52.992;6.796;2024-03-29T10:56:37;1.98;;;1.13;;
54125;SDS011;40360;52.992;6.796;2024-03-29T11:01:56;1.88;;;0.98;;
54125;SDS011;40360;52.992;6.796;2024-03-29T11:04:35;3.15;;;1.00;;
54125;SDS011;40360;52.992;6.796;2024-03-29T11:07:05;3.55;;;1.30;;
54125;SDS011;40360;52.992;6.796;2024-03-29T11:09:39;3.10;;;1.10;;
54125;SDS011;40360;52.992;6.796;2024-03-29T11:12:06;5.45;;;1.40;;
54125;SDS011;40360;52.992;6.796;2024-03-29T11:14:37;3.83;;;1.50;;
54125;SDS011;40360;52.992;6.796;2024-03-29T11:17:08;3.25;;;1.65;;
54125;SDS011;40360;52.992;6.796;2024-03-29T11:19:38;3.47;;;1.50;;
54125;SDS011;40360;52.992;6.796;2024-03-29T11:22:05;3.33;;;1.70;;
54125;SDS011;40360;52.992;6.796;2024-03-29T11:24:32;4.43;;;1.95;;
54125;SDS011;40360;52.992;6.796;2024-03-29T11:27:09;4.28;;;2.00;;
54125;SDS011;40360;52.992;6.796;2024-03-29T11:29:36;2.72;;;1.70;;
54125;SDS011;40360;52.992;6.796;2024-03-29T11:32:11;4.97;;;1.80;;
54125;SDS011;40360;52.992;6.796;2024-03-29T11:34:43;6.05;;;2.65;;
54125;SDS011;40360;52.992;6.796;2024-03-29T11:37:14;3.42;;;2.40;;
54125;SDS011;40360;52.992;6.796;2024-03-29T11:39:46;3.42;;;2.10;;
54125;SDS011;40360;52.992;6.796;2024-03-29T11:42:16;10.57;;;2.53;;
54125;SDS011;40360;52.992;6.796;2024-03-29T11:45:00;5.22;;;2.50;;
54125;SDS011;40360;52.992;6.796;2024-03-29T11:47:27;5.20;;;2.33;;
54125;SDS011;40360;52.992;6.796;2024-03-29T11:49:56;4.05;;;2.50;;
54125;SDS011;40360;52.992;6.796;2024-03-29T11:52:26;5.18;;;2.60;;
54125;SDS011;40360;52.992;6.796;2024-03-29T11:54:58;2.95;;;2.63;;
54125;SDS011;40360;52.992;6.796;2024-03-29T11:57:25;6.38;;;3.13;;
54125;SDS011;40360;52.992;6.796;2024-03-29T11:59:52;4.15;;;2.80;;
54125;SDS011;40360;52.992;6.796;2024-03-29T12:02:19;3.65;;;2.90;;
54125;SDS011;40360;52.992;6.796;2024-03-29T12:04:45;4.53;;;3.05;;
54125;SDS011;40360;52.992;6.796;2024-03-29T12:07:12;3.67;;;3.13;;
54125;SDS011;40360;52.992;6.796;2024-03-29T12:09:39;4.05;;;3.38;;
54125;SDS011;40360;52.992;6.796;2024-03-29T12:12:06;5.93;;;3.42;;
54125;SDS011;40360;52.992;6.796;2024-03-29T12:14:35;5.00;;;3.15;;
54125;SDS011;40360;52.992;6.796;2024-03-29T12:17:09;6.50;;;3.53;;
54125;SDS011;40360;52.992;6.796;2024-03-29T12:19:37;6.75;;;3.53;;
54125;SDS011;40360;52.992;6.796;2024-03-29T12:22:08;5.00;;;2.90;;
54125;SDS011;40360;52.992;6.796;2024-03-29T12:24:35;4.32;;;3.35;;
54125;SDS011;40360;52.992;6.796;2024-03-29T12:27:02;4.78;;;3.70;;
54125;SDS011;40360;52.992;6.796;2024-03-29T12:29:29;5.10;;;3.10;;
54125;SDS011;40360;52.992;6.796;2024-03-29T12:31:59;4.38;;;3.35;;
54125;SDS011;40360;52.992;6.796;2024-03-29T12:34:27;5.45;;;3.58;;
54125;SDS011;40360;52.992;6.796;2024-03-29T12:37:00;4.93;;;3.42;;
54125;SDS011;40360;52.992;6.796;2024-03-29T12:39:32;4.85;;;3.28;;
54125;SDS011;40360;52.992;6.796;2024-03-29T12:42:00;4.45;;;3.42;;
54125;SDS011;40360;52.992;6.796;2024-03-29T12:44:26;4.05;;;3.22;;
54125;SDS011;40360;52.992;6.796;2024-03-29T12:46:53;6.30;;;3.10;;
54125;SDS011;40360;52.992;6.796;2024-03-29T12:49:19;5.78;;;3.55;;
54125;SDS011;40360;52.992;6.796;2024-03-29T12:51:49;4.78;;;3.50;;
54125;SDS011;40360;52.992;6.796;2024-03-29T12:54:16;4.57;;;3.22;;
54125;SDS011;40360;52.992;6.796;2024-03-29T12:56:44;5.15;;;2.95;;
54125;SDS011;40360;52.992;6.796;2024-03-29T12:59:14;2.97;;;2.67;;
54125;SDS011;40360;52.992;6.796;2024-03-29T13:01:41;5.25;;;3.15;;
54125;SDS011;40360;52.992;6.796;2024-03-29T13:04:11;3.97;;;3.30;;
54125;SDS011;40360;52.992;6.796;2024-03-29T13:06:37;5.97;;;2.78;;
54125;SDS011;40360;52.992;6.796;2024-03-29T13:09:03;4.35;;;2.63;;
54125;SDS011;40360;52.992;6.796;2024-03-29T13:11:30;4.47;;;2.20;;
54125;SDS011;40360;52.992;6.796;2024-03-29T13:13:57;3.97;;;2.72;;
54125;SDS011;40360;52.992;6.796;2024-03-29T13:16:23;2.70;;;2.15;;
54125;SDS011;40360;52.992;6.796;2024-03-29T13:18:49;4.68;;;2.30;;
54125;SDS011;40360;52.992;6.796;2024-03-29T13:21:17;4.10;;;2.65;;
54125;SDS011;40360;52.992;6.796;2024-03-29T13:23:43;3.85;;;2.20;;
54125;SDS011;40360;52.992;6.796;2024-03-29T13:26:09;2.55;;;1.85;;
54125;SDS011;40360;52.992;6.796;2024-03-29T13:28:36;1.55;;;1.45;;
54125;SDS011;40360;52.992;6.796;2024-03-29T13:31:02;2.28;;;1.80;;
54125;SDS011;40360;52.992;6.796;2024-03-29T13:33:29;4.05;;;2.35;;
54125;SDS011;40360;52.992;6.796;2024-03-29T13:35:57;3.05;;;1.45;;
54125;SDS011;40360;52.992;6.796;2024-03-29T13:38:27;2.30;;;1.77;;
54125;SDS011;40360;52.992;6.796;2024-03-29T13:40:55;3.03;;;1.55;;
54125;SDS011;40360;52.992;6.796;2024-03-29T13:43:25;2.35;;;1.70;;
54125;SDS011;40360;52.992;6.796;2024-03-29T13:45:52;1.60;;;1.30;;
54125;SDS011;40360;52.992;6.796;2024-03-29T13:48:18;2.05;;;1.30;;
54125;SDS011;40360;52.992;6.796;2024-03-29T13:50:47;3.33;;;1.80;;
54125;SDS011;40360;52.992;6.796;2024-03-29T13:53:13;3.58;;;1.77;;
54125;SDS011;40360;52.992;6.796;2024-03-29T13:55:43;3.38;;;1.60;;
54125;SDS011;40360;52.992;6.796;2024-03-29T13:58:08;4.10;;;1.70;;
54125;SDS011;40360;52.992;6.796;2024-03-29T14:00:38;2.90;;;1.35;;
54125;SDS011;40360;52.992;6.796;2024-03-29T14:03:05;2.40;;;1.10;;
54125;SDS011;40360;52.992;6.796;2024-03-29T14:05:32;2.67;;;1.20;;
54125;SDS011;40360;52.992;6.796;2024-03-29T14:07:59;1.25;;;1.08;;
54125;SDS011;40360;52.992;6.796;2024-03-29T14:10:26;3.25;;;1.27;;
54125;SDS011;40360;52.992;6.796;2024-03-29T14:12:53;1.98;;;1.20;;
54125;SDS011;40360;52.992;6.796;2024-03-29T14:15:20;1.60;;;1.00;;
54125;SDS011;40360;52.992;6.796;2024-03-29T14:17:48;1.23;;;0.95;;
54125;SDS011;40360;52.992;6.796;2024-03-29T14:20:16;2.67;;;0.98;;
54125;SDS011;40360;52.992;6.796;2024-03-29T14:22:43;2.47;;;1.10;;
54125;SDS011;40360;52.992;6.796;2024-03-29T14:25:14;1.10;;;0.93;;
54125;SDS011;40360;52.992;6.796;2024-03-29T14:27:41;2.22;;;1.25;;
54125;SDS011;40360;52.992;6.796;2024-03-29T14:30:13;3.67;;;0.98;;
54125;SDS011;40360;52.992;6.796;2024-03-29T14:32:40;2.05;;;1.00;;
54125;SDS011;40360;52.992;6.796;2024-03-29T14:35:12;0.95;;;0.80;;
54125;SDS011;40360;52.992;6.796;2024-03-29T14:37:40;2.25;;;0.90;;
54125;SDS011;40360;52.992;6.796;2024-03-29T14:40:11;2.30;;;1.35;;
54125;SDS011;40360;52.992;6.796;2024-03-29T14:42:41;2.90;;;1.00;;
54125;SDS011;40360;52.992;6.796;2024-03-29T14:45:08;4.68;;;1.83;;
54125;SDS011;40360;52.992;6.796;2024-03-29T14:47:38;1.55;;;0.90;;
54125;SDS011;40360;52.992;6.796;2024-03-29T14:50:05;3.50;;;1.23;;
54125;SDS011;40360;52.992;6.796;2024-03-29T14:52:36;1.83;;;1.23;;
54125;SDS011;40360;52.992;6.796;2024-03-29T14:55:03;2.53;;;1.30;;
54125;SDS011;40360;52.992;6.796;2024-03-29T14:57:31;3.08;;;1.05;;
54125;SDS011;40360;52.992;6.796;2024-03-29T15:00:02;1.90;;;1.00;;
54125;SDS011;40360;52.992;6.796;2024-03-29T15:02:30;2.75;;;0.90;;
54125;SDS011;40360;52.992;6.796;2024-03-29T15:04:56;2.40;;;1.20;;
54125;SDS011;40360;52.992;6.796;2024-03-29T15:07:24;1.30;;;0.98;;
54125;SDS011;40360;52.992;6.796;2024-03-29T15:09:51;4.32;;;1.23;;